Terminal Aerodrome Forecast
Issued by NWS Upton, NY

Home | Current Version | Previous Version | Text Only | Print | Product List | Glossary On
Versions: 1 2 3 4 5 6 7 8 9 10 11 12 13 14 15 16 17 18 19 20 21 22 23 24 25 26 27 28
397
FTUS41 KOKX 102040 AAA
TAFJFK
TAF AMD
KJFK 102040Z 1021/1124 29012G19KT P6SM BKN050
     FM110000 30011KT P6SM SCT050
     FM110600 31008KT P6SM SCT250
     FM111200 31006KT P6SM OVC120
     FM111600 22006KT P6SM SCT040 OVC060
     FM112100 19008KT 3SM -SN BR OVC035=

USA.gov is the U.S. government's official web portal to all federal, state and local government web resources and services.